IVAO ES Tour IFR-A 2013 Etapa 16

IVAO ES Tour IFR-A 2013 Etapa 16

Reus ( LERS ) – Vitoria ( LEVT )

Datos generales del vuelo
 Fecha 06-12-2013  Avión  B737-800 winglets
 Ruta POSSY G23 PPN  Nivel de vuelo FL230
 Origen LERS  Destino LEVT
 Velocidad M0.640  Distancia 265Nm
 Distancia real 201Nm ETE 00:45
 ETA 20:05Z  FOB 02:35
 Hora salida 19:30Z Hora llegada 20:15Z
 Pax 152 TOW 67106Kg
 MTOW  78471Kg Fuel 5795Kg
 Fuel utilizado 2667Kg ZFW 61309Kg
Peso carga 8817Kg Peso pasaje 11079Kg
V1 130Knots Vr 140Knots
 V2 149Knots  Vref 148Knots
 Velocidad vertical toma
48,5 ft/m  

 

Datos LERS

Metar: LERS 061830Z 04004KT CAVOK 05/02 Q1025
Pista Activa:  25
Salida: POSSY1R

Datos LEVT

Metar: LEVT 061930Z 25003KT 220V280 CAVOK 02/01 Q1029
Pista Activa: 04
Llegada:  ppn1n
App:  ILS Z transición LOPNA

 

 

Deja una respuesta